createdAt,value
2023-06-09T00:00:56.428Z,6.60
2023-06-09T00:03:23.477Z,7.68
2023-06-09T00:05:50.400Z,6.57
2023-06-09T00:08:17.278Z,6.75
2023-06-09T00:10:43.994Z,6.78
2023-06-09T00:13:11.035Z,7.20
2023-06-09T00:15:38.065Z,6.85
2023-06-09T00:18:05.311Z,6.70
2023-06-09T00:20:34.751Z,7.10
2023-06-09T00:23:02.668Z,7.47
2023-06-09T00:25:29.333Z,6.75
2023-06-09T00:27:55.876Z,7.05
2023-06-09T00:30:38.144Z,7.32
2023-06-09T00:35:33.193Z,7.03
2023-06-09T00:37:59.691Z,6.80
2023-06-09T00:40:26.321Z,7.55
2023-06-09T00:42:55.033Z,7.25
2023-06-09T00:45:21.692Z,7.85
2023-06-09T00:47:48.562Z,7.53
2023-06-09T00:50:20.984Z,7.15
2023-06-09T00:52:48.209Z,7.25
2023-06-09T00:55:18.209Z,7.10
2023-06-09T00:57:47.314Z,7.60
2023-06-09T01:00:17.262Z,7.57
2023-06-09T01:02:44.486Z,7.07
2023-06-09T01:05:13.789Z,7.43
2023-06-09T01:07:47.447Z,7.30
2023-06-09T01:10:31.984Z,7.13
2023-06-09T01:13:17.473Z,7.28
2023-06-09T01:15:55.194Z,7.30
2023-06-09T01:18:25.933Z,7.63
2023-06-09T01:21:07.633Z,7.53
2023-06-09T01:23:45.733Z,7.05
2023-06-09T01:26:13.875Z,7.00
2023-06-09T01:28:42.126Z,7.28
2023-06-09T01:31:12.663Z,7.78
2023-06-09T01:33:39.445Z,7.45
2023-06-09T01:36:06.951Z,8.05
2023-06-09T01:38:33.601Z,7.03
2023-06-09T01:41:00.446Z,7.00
2023-06-09T01:43:27.077Z,7.50
2023-06-09T01:45:53.729Z,7.35
2023-06-09T01:48:31.728Z,7.70
2023-06-09T01:51:07.639Z,7.60
2023-06-09T01:53:37.414Z,7.38
2023-06-09T01:56:07.197Z,7.47
2023-06-09T01:58:43.572Z,7.50
2023-06-09T02:01:12.166Z,7.65
2023-06-09T02:03:41.903Z,7.93
2023-06-09T02:06:11.365Z,7.78
2023-06-09T02:08:38.603Z,7.50
2023-06-09T02:11:05.886Z,7.60
2023-06-09T02:13:32.544Z,7.82
2023-06-09T02:15:59.097Z,8.10
2023-06-09T02:18:26.136Z,7.45
2023-06-09T02:20:53.430Z,7.47
2023-06-09T02:23:23.887Z,7.82
2023-06-09T02:25:50.459Z,7.65
2023-06-09T02:28:17.880Z,7.80
2023-06-09T02:30:46.030Z,7.32
2023-06-09T02:33:15.554Z,7.50
2023-06-09T02:35:42.343Z,7.22
2023-06-09T02:38:10.271Z,7.95
2023-06-09T02:40:36.903Z,7.95
2023-06-09T02:43:03.563Z,7.65
2023-06-09T02:45:30.254Z,7.25
2023-06-09T02:47:57.596Z,7.57
2023-06-09T02:50:24.508Z,7.95
2023-06-09T02:52:56.014Z,7.57
2023-06-09T02:55:23.207Z,7.93
2023-06-09T02:57:51.619Z,8.40
2023-06-09T03:00:21.284Z,7.82
2023-06-09T03:02:52.437Z,8.02
2023-06-09T03:05:22.080Z,8.20
2023-06-09T03:07:50.731Z,7.90
2023-06-09T03:10:17.515Z,7.85
2023-06-09T03:12:45.763Z,8.07
2023-06-09T03:15:12.766Z,7.85
2023-06-09T03:17:42.821Z,8.65
2023-06-09T03:20:10.717Z,8.30
2023-06-09T03:22:38.011Z,7.72
2023-06-09T03:25:06.020Z,8.63
2023-06-09T03:27:32.564Z,8.32
2023-06-09T03:29:59.143Z,9.68
2023-06-09T03:32:25.704Z,7.53
2023-06-09T03:34:54.094Z,8.63
2023-06-09T03:37:20.966Z,7.60
2023-06-09T03:39:47.545Z,8.50
2023-06-09T03:42:18.709Z,8.30
2023-06-09T03:44:45.294Z,7.78
2023-06-09T03:47:11.932Z,7.47
2023-06-09T03:49:39.918Z,7.38
2023-06-09T03:52:07.505Z,8.30
2023-06-09T03:54:35.797Z,7.72
2023-06-09T03:57:02.925Z,8.07
2023-06-09T03:59:29.926Z,8.23
2023-06-09T04:01:56.705Z,7.55
2023-06-09T04:04:24.493Z,8.43
2023-06-09T04:06:51.210Z,8.57
2023-06-09T04:09:21.585Z,8.25
2023-06-09T04:11:48.164Z,7.53
2023-06-09T04:14:14.839Z,8.57
2023-06-09T04:16:42.704Z,9.60
2023-06-09T04:19:10.062Z,8.40
2023-06-09T04:21:38.455Z,8.48
2023-06-09T04:24:05.732Z,8.80
2023-06-09T04:26:33.902Z,9.35
2023-06-09T04:29:00.924Z,9.05
2023-06-09T04:31:35.101Z,8.07
2023-06-09T04:34:11.346Z,10.52
2023-06-09T04:36:41.074Z,8.75
2023-06-09T04:39:10.516Z,8.75
2023-06-09T04:41:38.778Z,8.18
2023-06-09T04:44:07.385Z,8.68
2023-06-09T04:46:39.327Z,9.98
2023-06-09T04:49:10.646Z,12.40
2023-06-09T04:51:47.640Z,9.10
2023-06-09T04:54:18.384Z,10.55
2023-06-09T04:56:53.658Z,10.05
2023-06-09T04:59:23.233Z,10.35
2023-06-09T05:01:49.834Z,10.82
2023-06-09T05:04:18.371Z,10.02
2023-06-09T05:06:45.783Z,10.88
2023-06-09T05:09:13.669Z,9.98
2023-06-09T05:11:41.645Z,9.93
2023-06-09T05:14:08.877Z,11.00
2023-06-09T05:16:36.224Z,10.90
2023-06-09T05:19:05.676Z,10.18
2023-06-09T05:21:32.282Z,10.13
2023-06-09T05:23:59.055Z,10.10
2023-06-09T05:26:26.696Z,10.82
2023-06-09T05:28:53.964Z,9.55
2023-06-09T05:31:21.112Z,10.45
2023-06-09T05:33:48.069Z,9.95
2023-06-09T05:36:14.596Z,9.77
2023-06-09T05:38:47.074Z,10.07
2023-06-09T05:41:15.749Z,9.43
2023-06-09T05:43:42.375Z,10.00
2023-06-09T05:46:09.009Z,8.85
2023-06-09T05:48:35.524Z,8.80
2023-06-09T05:51:02.022Z,9.38
2023-06-09T05:53:28.741Z,8.93
2023-06-09T05:55:55.389Z,8.10
2023-06-09T05:58:21.926Z,9.02
2023-06-09T06:00:50.146Z,8.18
2023-06-09T06:03:17.010Z,8.60
2023-06-09T06:05:45.896Z,8.02
2023-06-09T06:08:12.518Z,7.97
2023-06-09T06:10:39.029Z,7.25
2023-06-09T06:13:05.671Z,8.10
2023-06-09T06:15:32.233Z,7.35
2023-06-09T06:17:58.809Z,7.57
2023-06-09T06:20:25.722Z,7.93
2023-06-09T06:22:52.449Z,7.05
2023-06-09T06:25:19.357Z,6.95
2023-06-09T06:27:48.369Z,7.40
2023-06-09T06:30:15.820Z,7.43
2023-06-09T06:32:53.316Z,8.57
2023-06-09T06:35:27.834Z,9.68
2023-06-09T06:37:54.595Z,6.82
2023-06-09T06:40:21.336Z,7.35
2023-06-09T06:42:48.042Z,6.47
2023-06-09T06:45:23.642Z,6.78
2023-06-09T06:47:50.947Z,6.88
2023-06-09T06:50:18.040Z,6.03
2023-06-09T06:52:44.695Z,6.78
2023-06-09T06:55:11.390Z,6.72
2023-06-09T06:57:39.277Z,6.82
2023-06-09T07:00:10.940Z,6.95
2023-06-09T07:02:38.823Z,7.15
2023-06-09T07:05:07.852Z,6.13
2023-06-09T07:07:34.475Z,6.57
2023-06-09T07:10:02.083Z,6.25
2023-06-09T07:12:28.708Z,6.38
2023-06-09T07:14:59.929Z,6.13
2023-06-09T07:17:26.885Z,6.38
2023-06-09T07:19:53.521Z,6.45
2023-06-09T07:22:20.154Z,6.30
2023-06-09T07:24:47.551Z,6.65
2023-06-09T07:27:14.174Z,6.90
2023-06-09T07:29:42.780Z,6.68
2023-06-09T07:32:10.591Z,5.68
2023-06-09T07:34:38.569Z,6.50
2023-06-09T07:37:06.450Z,6.35
2023-06-09T07:39:36.547Z,6.60
2023-06-09T07:42:03.508Z,6.40
2023-06-09T07:44:30.377Z,6.45
2023-06-09T07:46:57.029Z,6.75
2023-06-09T07:49:23.568Z,6.07
2023-06-09T07:51:51.113Z,5.88
2023-06-09T07:54:17.980Z,6.35
2023-06-09T07:56:49.696Z,6.00
2023-06-09T07:59:19.996Z,6.05
2023-06-09T08:01:47.281Z,6.38
2023-06-09T08:04:14.769Z,5.97
2023-06-09T08:06:41.404Z,6.28
2023-06-09T08:09:09.844Z,5.60
2023-06-09T08:11:39.629Z,5.85
2023-06-09T08:14:07.677Z,6.18
2023-06-09T08:16:34.346Z,5.68
2023-06-09T08:19:01.369Z,5.85
2023-06-09T08:21:27.875Z,5.88
2023-06-09T08:23:54.412Z,7.72
2023-06-09T08:26:21.006Z,5.68
2023-06-09T08:28:47.595Z,5.78
2023-06-09T08:31:14.204Z,5.50
2023-06-09T08:33:40.971Z,5.32
2023-06-09T08:36:08.490Z,4.85
2023-06-09T08:38:36.601Z,5.25
2023-06-09T08:41:09.979Z,5.10
2023-06-09T08:46:07.805Z,5.30
2023-06-09T08:48:36.538Z,4.65
2023-06-09T08:51:03.181Z,4.70
2023-06-09T08:53:30.524Z,4.90
2023-06-09T08:55:59.428Z,3.70
2023-06-09T08:58:27.459Z,3.33
2023-06-09T09:00:54.504Z,4.00
2023-06-09T09:03:21.779Z,3.95
2023-06-09T09:05:48.577Z,3.97
2023-06-09T09:08:15.374Z,3.55
2023-06-09T09:10:42.832Z,3.83
2023-06-09T09:13:11.324Z,3.45
2023-06-09T09:15:42.180Z,3.40
2023-06-09T09:18:11.970Z,3.70
2023-06-09T09:20:40.085Z,3.40
2023-06-09T09:23:08.830Z,3.65
2023-06-09T09:25:35.735Z,4.40
2023-06-09T09:28:10.299Z,4.00
2023-06-09T09:30:57.263Z,3.85
2023-06-09T09:33:28.302Z,4.18
2023-06-09T09:35:58.010Z,4.07
2023-06-09T09:38:26.577Z,3.60
2023-06-09T09:40:57.774Z,2.90
2023-06-09T09:43:31.607Z,3.63
2023-06-09T09:46:05.939Z,3.05
2023-06-09T09:48:34.298Z,3.72
2023-06-09T09:51:01.731Z,2.65
2023-06-09T09:53:28.735Z,3.17
2023-06-09T09:55:57.537Z,3.58
2023-06-09T09:58:32.941Z,3.25
2023-06-09T10:01:04.184Z,3.15
2023-06-09T10:03:32.303Z,3.20
2023-06-09T10:06:01.888Z,3.38
2023-06-09T10:08:29.999Z,3.35
2023-06-09T10:10:57.713Z,3.40
2023-06-09T10:13:27.360Z,3.40
2023-06-09T10:15:55.061Z,3.15
2023-06-09T10:18:23.085Z,2.95
2023-06-09T10:20:51.580Z,2.72
2023-06-09T10:23:18.655Z,2.85
2023-06-09T10:25:52.116Z,2.70
2023-06-09T10:28:19.928Z,3.58
2023-06-09T10:30:48.891Z,3.22
2023-06-09T10:33:40.182Z,3.20
2023-06-09T10:36:07.189Z,3.47
2023-06-09T10:38:45.181Z,3.60
2023-06-09T10:41:19.971Z,3.58
2023-06-09T10:43:57.846Z,3.88
2023-06-09T10:46:43.812Z,3.72
2023-06-09T10:49:26.040Z,4.07
2023-06-09T10:51:53.405Z,3.47
2023-06-09T10:54:24.684Z,3.28
2023-06-09T10:57:01.377Z,4.10
2023-06-09T10:59:27.971Z,3.67
2023-06-09T11:02:03.666Z,3.33
2023-06-09T11:04:44.936Z,3.50
2023-06-09T11:07:18.433Z,4.05
2023-06-09T11:09:48.182Z,3.63
2023-06-09T11:12:36.829Z,3.95
2023-06-09T11:15:04.469Z,4.75
2023-06-09T11:17:35.324Z,3.83
2023-06-09T11:20:09.188Z,4.10
2023-06-09T11:23:00.563Z,3.88
2023-06-09T11:25:28.881Z,3.63
2023-06-09T11:27:58.483Z,3.70
2023-06-09T11:30:31.089Z,4.03
2023-06-09T11:32:59.691Z,3.92
2023-06-09T11:35:32.598Z,3.65
2023-06-09T11:40:29.934Z,3.55
2023-06-09T11:42:57.904Z,4.03
2023-06-09T11:45:26.009Z,3.65
2023-06-09T11:47:58.010Z,3.28
2023-06-09T11:50:26.783Z,4.00
2023-06-09T11:53:07.380Z,3.92
2023-06-09T11:55:34.019Z,6.07
2023-06-09T11:58:03.771Z,4.07
2023-06-09T12:00:31.802Z,3.70
2023-06-09T12:02:58.721Z,3.40
2023-06-09T12:05:30.004Z,3.63
2023-06-09T12:07:56.936Z,3.28
2023-06-09T12:10:29.979Z,3.35
2023-06-09T12:12:58.340Z,3.85
2023-06-09T12:15:28.203Z,3.30
2023-06-09T12:17:58.260Z,3.72
2023-06-09T12:20:33.270Z,3.67
2023-06-09T12:23:07.731Z,3.50
2023-06-09T12:25:39.045Z,3.78
2023-06-09T12:28:25.427Z,4.20
2023-06-09T12:30:54.535Z,3.85
2023-06-09T12:33:33.581Z,3.78
2023-06-09T12:36:12.058Z,3.90
2023-06-09T12:38:40.549Z,3.50
2023-06-09T12:41:09.956Z,3.33
2023-06-09T12:44:00.448Z,3.75
2023-06-09T12:46:36.056Z,3.15
2023-06-09T12:49:03.947Z,3.70
2023-06-09T12:51:31.381Z,3.58
2023-06-09T12:53:59.270Z,3.53
2023-06-09T12:56:27.240Z,3.60
2023-06-09T12:58:57.131Z,3.60
2023-06-09T13:01:27.043Z,3.75
2023-06-09T13:03:53.944Z,3.65
2023-06-09T13:06:20.514Z,3.70
2023-06-09T13:08:47.071Z,3.17
2023-06-09T13:11:13.710Z,3.35
2023-06-09T13:13:41.394Z,3.05
2023-06-09T13:16:08.894Z,3.53
2023-06-09T13:18:37.921Z,3.50
2023-06-09T13:21:06.547Z,3.15
2023-06-09T13:23:33.091Z,2.92
2023-06-09T13:25:59.641Z,2.97
2023-06-09T13:28:26.405Z,2.95
2023-06-09T13:30:52.947Z,3.13
2023-06-09T13:33:20.434Z,3.17
2023-06-09T13:35:47.566Z,3.22
2023-06-09T13:38:15.717Z,2.70
2023-06-09T13:40:46.539Z,2.88
2023-06-09T13:43:15.054Z,2.92
2023-06-09T13:45:42.435Z,3.10
2023-06-09T13:48:09.481Z,3.22
2023-06-09T13:50:36.932Z,2.58
2023-06-09T13:53:05.870Z,3.65
2023-06-09T13:55:32.399Z,4.68
2023-06-09T13:57:58.995Z,3.15
2023-06-09T14:00:25.725Z,3.00
2023-06-09T14:02:52.815Z,3.33
2023-06-09T14:05:23.425Z,3.10
2023-06-09T14:07:50.103Z,3.35
2023-06-09T14:10:16.889Z,3.20
2023-06-09T14:12:49.494Z,3.00
2023-06-09T14:15:24.288Z,3.20
2023-06-09T14:17:55.258Z,3.38
2023-06-09T14:20:23.019Z,3.20
2023-06-09T14:22:53.460Z,3.03
2023-06-09T14:25:22.982Z,2.97
2023-06-09T14:27:51.324Z,3.22
2023-06-09T14:30:22.532Z,2.70
2023-06-09T14:32:50.854Z,3.20
2023-06-09T14:35:23.758Z,3.63
2023-06-09T14:37:56.063Z,3.30
2023-06-09T14:40:24.390Z,3.37
2023-06-09T14:42:51.644Z,3.50
2023-06-09T14:45:21.841Z,2.90
2023-06-09T14:47:57.211Z,2.72
2023-06-09T14:50:36.662Z,3.13
2023-06-09T14:53:03.824Z,2.83
2023-06-09T14:55:32.845Z,3.05
2023-06-09T14:58:02.670Z,2.90
2023-06-09T15:00:31.305Z,3.40
2023-06-09T15:02:59.692Z,3.35
2023-06-09T15:05:28.841Z,3.45
2023-06-09T15:07:58.055Z,2.63
2023-06-09T15:10:26.205Z,4.40
2023-06-09T15:12:53.124Z,2.95
2023-06-09T15:15:21.772Z,3.03
2023-06-09T15:17:48.369Z,2.88
2023-06-09T15:20:15.626Z,2.65
2023-06-09T15:22:42.246Z,3.25
2023-06-09T15:25:10.503Z,3.10
2023-06-09T15:27:38.343Z,3.03
2023-06-09T15:30:07.051Z,3.40
2023-06-09T15:32:34.599Z,2.95
2023-06-09T15:35:01.210Z,3.35
2023-06-09T15:37:27.767Z,3.13
2023-06-09T15:39:54.261Z,3.00
2023-06-09T15:42:20.832Z,3.00
2023-06-09T15:44:47.387Z,2.97
2023-06-09T15:47:14.190Z,3.10
2023-06-09T15:49:40.752Z,2.88
2023-06-09T15:52:07.633Z,2.80
2023-06-09T15:54:34.162Z,3.38
2023-06-09T15:57:01.794Z,3.65
2023-06-09T15:59:31.542Z,3.55
2023-06-09T16:01:58.068Z,3.05
2023-06-09T16:04:25.093Z,3.22
2023-06-09T16:06:51.824Z,2.97
2023-06-09T16:09:18.670Z,3.55
2023-06-09T16:11:45.511Z,3.40
2023-06-09T16:14:12.335Z,3.78
2023-06-09T16:16:39.004Z,3.40
2023-06-09T16:19:05.629Z,3.00
2023-06-09T16:21:34.083Z,3.55
2023-06-09T16:24:00.723Z,3.20
2023-06-09T16:26:28.344Z,3.47
2023-06-09T16:28:55.234Z,3.20
2023-06-09T16:31:21.930Z,3.35
2023-06-09T16:33:48.808Z,3.85
2023-06-09T16:36:15.434Z,3.60
2023-06-09T16:38:43.418Z,3.88
2023-06-09T16:41:11.550Z,6.45
2023-06-09T16:43:39.415Z,4.25
2023-06-09T16:46:06.630Z,3.13
2023-06-09T16:48:36.562Z,3.80
2023-06-09T16:51:04.231Z,3.28
2023-06-09T16:53:31.353Z,4.05
2023-06-09T16:55:58.331Z,4.30
2023-06-09T16:58:24.916Z,3.40
2023-06-09T17:00:51.444Z,3.22
2023-06-09T17:03:18.137Z,3.53
2023-06-09T17:05:44.891Z,3.88
2023-06-09T17:08:11.756Z,3.90
2023-06-09T17:10:38.435Z,3.28
2023-06-09T17:13:06.145Z,3.33
2023-06-09T17:15:33.326Z,3.38
2023-06-09T17:18:00.093Z,3.58
2023-06-09T17:20:26.983Z,3.30
2023-06-09T17:22:53.789Z,3.58
2023-06-09T17:25:20.493Z,3.33
2023-06-09T17:27:47.846Z,3.55
2023-06-09T17:30:15.516Z,3.13
2023-06-09T17:32:43.568Z,3.38
2023-06-09T17:35:11.568Z,3.20
2023-06-09T17:37:41.216Z,3.50
2023-06-09T17:40:09.693Z,3.40
2023-06-09T17:42:36.432Z,3.15
2023-06-09T17:45:03.078Z,3.72
2023-06-09T17:47:31.180Z,4.05
2023-06-09T17:49:58.546Z,3.40
2023-06-09T17:52:25.088Z,3.25
2023-06-09T17:54:52.263Z,3.40
2023-06-09T17:57:18.864Z,3.15
2023-06-09T17:59:45.449Z,3.10
2023-06-09T18:02:12.179Z,3.83
2023-06-09T18:04:38.812Z,3.20
2023-06-09T18:07:08.709Z,3.75
2023-06-09T18:09:35.576Z,3.28
2023-06-09T18:12:02.277Z,3.53
2023-06-09T18:14:29.680Z,3.60
2023-06-09T18:16:56.283Z,3.67
2023-06-09T18:19:22.820Z,3.60
2023-06-09T18:21:49.403Z,3.95
2023-06-09T18:24:16.017Z,3.53
2023-06-09T18:26:42.693Z,3.80
2023-06-09T18:29:09.751Z,3.50
2023-06-09T18:31:36.598Z,4.20
2023-06-09T18:34:03.648Z,8.63
2023-06-09T18:36:32.683Z,4.13
2023-06-09T18:39:00.148Z,3.55
2023-06-09T18:41:27.281Z,3.83
2023-06-09T18:44:00.172Z,3.65
2023-06-09T18:46:27.913Z,3.65
2023-06-09T18:49:01.682Z,3.42
2023-06-09T18:51:28.852Z,4.00
2023-06-09T18:53:55.499Z,3.95
2023-06-09T18:56:22.267Z,4.07
2023-06-09T18:58:49.011Z,4.20
2023-06-09T19:01:15.618Z,4.05
2023-06-09T19:03:42.463Z,7.07
2023-06-09T19:06:09.436Z,4.45
2023-06-09T19:08:36.139Z,4.90
2023-06-09T19:11:02.783Z,5.20
2023-06-09T19:13:29.373Z,4.63
2023-06-09T19:15:56.328Z,5.30
2023-06-09T19:18:23.466Z,4.25
2023-06-09T19:20:51.098Z,4.72
2023-06-09T19:23:17.850Z,5.38
2023-06-09T19:25:44.818Z,5.40
2023-06-09T19:28:11.436Z,5.05
2023-06-09T19:30:39.221Z,4.65
2023-06-09T19:33:07.935Z,5.57
2023-06-09T19:35:34.908Z,5.72
2023-06-09T19:38:01.489Z,5.45
2023-06-09T19:40:28.126Z,5.78
2023-06-09T19:42:54.680Z,5.38
2023-06-09T19:45:21.235Z,4.90
2023-06-09T19:47:47.821Z,5.20
2023-06-09T19:50:14.709Z,5.25
2023-06-09T19:52:41.514Z,4.82
2023-06-09T19:55:08.792Z,5.07
2023-06-09T19:57:35.976Z,5.35
2023-06-09T20:00:06.340Z,5.13
2023-06-09T20:02:33.732Z,4.70
2023-06-09T20:05:00.509Z,4.90
2023-06-09T20:07:27.337Z,5.13
2023-06-09T20:09:54.059Z,5.80
2023-06-09T20:12:20.973Z,5.28
2023-06-09T20:14:50.947Z,5.50
2023-06-09T20:17:18.631Z,4.68
2023-06-09T20:19:46.059Z,4.85
2023-06-09T20:22:12.696Z,5.65
2023-06-09T20:24:39.372Z,5.28
2023-06-09T20:27:06.835Z,5.07
2023-06-09T20:29:37.980Z,5.45
2023-06-09T20:32:07.886Z,4.70
2023-06-09T20:34:34.659Z,5.28
2023-06-09T20:37:01.882Z,4.93
2023-06-09T20:39:28.672Z,5.60
2023-06-09T20:41:55.786Z,19.88
2023-06-09T20:44:23.344Z,6.32
2023-06-09T20:46:50.783Z,6.35
2023-06-09T20:49:17.498Z,6.00
2023-06-09T20:51:44.617Z,6.72
2023-06-09T20:54:20.272Z,5.82
2023-06-09T20:56:47.313Z,7.28
2023-06-09T20:59:14.367Z,5.50
2023-06-09T21:01:41.175Z,5.95
2023-06-09T21:04:08.570Z,6.05
2023-06-09T21:06:38.309Z,5.95
2023-06-09T21:09:05.717Z,5.30
2023-06-09T21:11:32.515Z,5.80
2023-06-09T21:13:59.592Z,5.90
2023-06-09T21:16:26.372Z,5.93
2023-06-09T21:18:53.120Z,6.10
2023-06-09T21:21:20.005Z,5.75
2023-06-09T21:23:46.767Z,5.90
2023-06-09T21:26:13.393Z,6.28
2023-06-09T21:28:43.618Z,6.80
2023-06-09T21:31:11.955Z,6.15
2023-06-09T21:33:38.800Z,6.10
2023-06-09T21:36:09.484Z,6.10
2023-06-09T21:38:36.722Z,6.82
2023-06-09T21:41:03.509Z,7.18
2023-06-09T21:43:30.397Z,7.03
2023-06-09T21:45:57.160Z,7.00
2023-06-09T21:48:26.689Z,7.20
2023-06-09T21:50:53.241Z,7.30
2023-06-09T21:53:19.782Z,8.38
2023-06-09T21:55:46.538Z,8.65
2023-06-09T21:58:13.418Z,9.50
2023-06-09T22:00:41.414Z,10.82
2023-06-09T22:03:09.431Z,9.50
2023-06-09T22:05:36.388Z,8.43
2023-06-09T22:08:02.993Z,7.65
2023-06-09T22:10:29.590Z,6.80
2023-06-09T22:12:56.240Z,6.85
2023-06-09T22:15:22.887Z,7.53
2023-06-09T22:17:49.575Z,7.20
2023-06-09T22:20:17.416Z,7.55
2023-06-09T22:22:44.243Z,7.38
2023-06-09T22:25:11.420Z,7.68
2023-06-09T22:27:38.360Z,7.05
2023-06-09T22:30:05.456Z,6.65
2023-06-09T22:32:32.695Z,7.00
2023-06-09T22:34:59.375Z,6.93
2023-06-09T22:37:26.177Z,7.38
2023-06-09T22:39:53.574Z,7.82
2023-06-09T22:42:20.467Z,8.02
2023-06-09T22:44:47.228Z,7.47
2023-06-09T22:47:14.592Z,7.07
2023-06-09T22:50:01.372Z,7.40
2023-06-09T22:52:28.562Z,6.90
2023-06-09T22:54:55.100Z,7.35
2023-06-09T22:57:21.678Z,6.57
2023-06-09T22:59:48.174Z,7.35
2023-06-09T23:02:14.948Z,6.40
2023-06-09T23:04:43.049Z,7.10
2023-06-09T23:07:09.635Z,6.43
2023-06-09T23:09:36.237Z,6.75
2023-06-09T23:12:03.019Z,6.97
2023-06-09T23:14:29.550Z,7.50
2023-06-09T23:16:56.364Z,7.28
2023-06-09T23:19:23.283Z,7.22
2023-06-09T23:21:51.613Z,7.05
2023-06-09T23:24:18.438Z,7.60
2023-06-09T23:26:45.092Z,7.35
2023-06-09T23:29:11.671Z,6.82
2023-06-09T23:31:38.285Z,7.82
2023-06-09T23:34:04.835Z,7.22
2023-06-09T23:36:31.420Z,7.88
2023-06-09T23:38:57.975Z,7.40
2023-06-09T23:41:24.496Z,7.88
2023-06-09T23:43:51.041Z,7.60
2023-06-09T23:46:17.701Z,7.35
2023-06-09T23:48:44.227Z,8.10
2023-06-09T23:51:12.421Z,7.43
2023-06-09T23:53:38.983Z,7.10
2023-06-09T23:56:05.654Z,8.18
2023-06-09T23:58:32.677Z,7.18
